Time;durP1;ratioP1;P1;durP2;ratioP2;P2;SDS_P1;SDS_P2;PMS_P1;PMS_P2;Temp;Humidity;BMP_temperature;BMP_pressure;BME280_temperature;BME280_humidity;BME280_pressure;Samples;Min_cycle;Max_cycle;Signal;HPM_P1;HPM_P2
2023/09/25 00:00:28;;;;;;;;;;;;;;;19.88;54.79;101324.94;4995560;28;19926;-77
2023/09/25 00:03:21;;;;;;;;;;;;;;;19.97;54.73;101333.81;5020397;28;20386;-77
2023/09/25 00:06:12;;;;;;;;;;;;;;;19.46;55.54;101336.66;4999194;28;19910;-77
2023/09/25 00:09:05;;;;;;;;;;;;;;;19.21;55.95;101341.59;4994763;28;19921;-78
2023/09/25 00:11:57;;;;;;;;;;;;;;;18.77;56.66;101338.16;4997931;28;19913;-76
2023/09/25 00:14:49;;;;;;;;;;;;;;;18.80;58.54;101336.63;4993696;28;19914;-76
2023/09/25 00:17:41;;;;;;;;;;;;;;;19.17;57.77;101345.41;4988654;28;19996;-76
2023/09/25 00:20:33;;;;;;;;;;;;;;;18.85;56.56;101343.81;4981956;28;20394;-77
2023/09/25 00:23:25;;;;;;;;;;;;;;;18.57;58.21;101346.66;5003292;28;20408;-78
2023/09/25 00:26:17;;;;;;;;;;;;;;;18.92;58.19;101344.81;4985063;28;19913;-76
2023/09/25 00:29:11;;;;;;;;;;;;;;;19.40;56.77;101342.81;4988990;28;20305;-76
2023/09/25 00:32:03;;;;;;;;;;;;;;;19.59;57.19;101340.91;4987109;28;19913;-77
2023/09/25 00:34:55;;;;;;;;;;;;;;;19.87;56.39;101335.19;4982703;28;19921;-77
2023/09/25 00:37:45;;;;;;;;;;;;;;;20.00;55.56;101339.41;4989142;28;19914;-77
2023/09/25 00:40:37;;;;;;;;;;;;;;;19.73;54.79;101350.66;4999883;28;19918;-77
2023/09/25 00:43:29;;;;;;;;;;;;;;;19.82;55.03;101354.00;4977041;28;19914;-76
2023/09/25 00:46:21;;;;;;;;;;;;;;;19.58;54.24;101353.09;4975470;28;19917;-76
2023/09/25 00:49:13;;;;;;;;;;;;;;;18.78;55.61;101359.06;4979301;28;20390;-77
2023/09/25 00:52:05;;;;;;;;;;;;;;;18.52;57.31;101350.47;4990768;28;19917;-77
2023/09/25 00:54:57;;;;;;;;;;;;;;;19.10;57.70;101350.75;4988816;28;19914;-77
2023/09/25 00:57:49;;;;;;;;;;;;;;;19.44;56.99;101347.28;4981151;28;20295;-77
2023/09/25 01:00:41;;;;;;;;;;;;;;;19.80;56.38;101335.06;4980120;28;19922;-77
2023/09/25 01:03:31;;;;;;;;;;;;;;;20.29;55.11;101339.97;4980445;28;19926;-77
2023/09/25 01:06:21;;;;;;;;;;;;;;;20.66;53.75;101332.81;4977398;28;19913;-78
2023/09/25 01:09:13;;;;;;;;;;;;;;;20.87;52.49;101340.66;4989500;28;19914;-77
2023/09/25 01:12:04;;;;;;;;;;;;;;;20.96;51.95;101341.19;4987876;28;19914;-78
2023/09/25 01:14:56;;;;;;;;;;;;;;;20.98;51.76;101338.06;4986639;28;19914;-77
2023/09/25 01:17:48;;;;;;;;;;;;;;;21.03;51.71;101340.53;4993084;28;19913;-77
2023/09/25 01:20:38;;;;;;;;;;;;;;;21.05;51.31;101336.19;4992406;28;19918;-76
2023/09/25 01:23:30;;;;;;;;;;;;;;;21.05;51.19;101344.50;4994938;28;19913;-77
2023/09/25 01:26:22;;;;;;;;;;;;;;;21.05;51.07;101335.41;4984636;28;19918;-76
2023/09/25 01:29:12;;;;;;;;;;;;;;;21.06;51.12;101331.47;5005973;28;19914;-76
2023/09/25 01:32:06;;;;;;;;;;;;;;;21.06;51.21;101329.50;4995575;28;19914;-77
2023/09/25 01:34:58;;;;;;;;;;;;;;;21.07;51.12;101330.31;5008188;28;20285;-77
2023/09/25 01:37:50;;;;;;;;;;;;;;;21.07;51.10;101327.53;5013509;28;19913;-77
2023/09/25 01:40:42;;;;;;;;;;;;;;;21.06;51.02;101320.41;4997751;28;19922;-77
2023/09/25 01:43:34;;;;;;;;;;;;;;;21.05;50.98;101327.09;5008627;28;19913;-77
2023/09/25 01:46:23;;;;;;;;;;;;;;;21.07;50.89;101319.25;4990287;28;19918;-76
2023/09/25 01:49:16;;;;;;;;;;;;;;;21.14;50.59;101328.47;4998223;28;19918;-77
2023/09/25 01:52:07;;;;;;;;;;;;;;;21.12;50.66;101328.03;4990552;28;19918;-79
2023/09/25 01:54:59;;;;;;;;;;;;;;;21.07;50.57;101325.56;4991570;28;19913;-77
2023/09/25 01:57:51;;;;;;;;;;;;;;;21.06;50.36;101314.88;4975344;28;19914;-78
2023/09/25 02:00:43;;;;;;;;;;;;;;;21.09;50.46;101326.00;4982595;28;19921;-77
2023/09/25 02:03:35;;;;;;;;;;;;;;;20.99;50.39;101309.22;4997367;28;19917;-77
2023/09/25 02:06:27;;;;;;;;;;;;;;;20.92;50.44;101309.94;4993560;28;19914;-77
2023/09/25 02:09:19;;;;;;;;;;;;;;;20.87;50.55;101297.22;4984947;28;19913;-77
2023/09/25 02:12:11;;;;;;;;;;;;;;;20.91;50.42;101294.50;4977215;28;19914;-77
2023/09/25 02:15:03;;;;;;;;;;;;;;;20.87;50.33;101296.41;4977242;28;19918;-76
2023/09/25 02:17:55;;;;;;;;;;;;;;;20.83;50.04;101295.53;4982352;28;19918;-76
2023/09/25 02:20:47;;;;;;;;;;;;;;;20.82;50.20;101293.97;4974749;28;19918;-76
2023/09/25 02:23:39;;;;;;;;;;;;;;;20.83;50.28;101295.53;4972426;28;19918;-76
2023/09/25 02:26:28;;;;;;;;;;;;;;;20.83;50.01;101296.34;4974962;28;20370;-76
2023/09/25 02:29:20;;;;;;;;;;;;;;;20.84;50.23;101295.19;4974458;28;19914;-76
2023/09/25 02:32:12;;;;;;;;;;;;;;;20.85;49.98;101290.44;4978666;28;19914;-76
2023/09/25 02:35:05;;;;;;;;;;;;;;;20.85;50.12;101293.22;4974353;28;19914;-77
2023/09/25 02:37:57;;;;;;;;;;;;;;;20.84;50.22;101299.91;4978821;28;20374;-76
2023/09/25 02:40:49;;;;;;;;;;;;;;;20.82;50.29;101292.00;4974668;28;19918;-76
2023/09/25 02:43:41;;;;;;;;;;;;;;;20.80;50.18;101305.38;4973216;28;19914;-77
2023/09/25 02:46:30;;;;;;;;;;;;;;;20.79;50.30;101300.22;4979251;28;19914;-76
2023/09/25 02:49:22;;;;;;;;;;;;;;;20.79;50.38;101292.72;4974563;28;19914;-76
2023/09/25 02:52:17;;;;;;;;;;;;;;;20.77;50.54;101297.84;4987722;28;19914;-76
2023/09/25 02:55:09;;;;;;;;;;;;;;;20.79;50.30;101303.78;4973710;28;19917;-76
2023/09/25 02:58:01;;;;;;;;;;;;;;;20.80;50.34;101294.34;4973418;28;19914;-76
2023/09/25 03:00:53;;;;;;;;;;;;;;;20.81;50.34;101292.38;4979332;28;19922;-76
2023/09/25 03:03:45;;;;;;;;;;;;;;;20.80;50.26;101283.28;4973852;28;20379;-76
2023/09/25 03:06:37;;;;;;;;;;;;;;;20.82;49.99;101278.19;4973942;28;19914;-76
2023/09/25 03:09:29;;;;;;;;;;;;;;;20.80;49.75;101269.44;4974241;28;19917;-76
2023/09/25 03:12:21;;;;;;;;;;;;;;;20.79;49.79;101269.81;4975502;28;19914;-76
2023/09/25 03:15:13;;;;;;;;;;;;;;;20.79;49.30;101269.81;4982986;28;19918;-76
2023/09/25 03:18:05;;;;;;;;;;;;;;;20.79;48.97;101269.81;4991649;28;19918;-76
2023/09/25 03:20:57;;;;;;;;;;;;;;;20.18;49.04;101264.38;4986958;28;19922;-76
2023/09/25 03:23:48;;;;;;;;;;;;;;;19.38;49.62;101268.69;4997210;28;20370;-76
2023/09/25 03:26:41;;;;;;;;;;;;;;;18.64;50.72;101266.97;4981851;28;19913;-77
2023/09/25 03:29:33;;;;;;;;;;;;;;;18.40;51.67;101267.91;4987999;28;19918;-76
2023/09/25 03:32:25;;;;;;;;;;;;;;;18.12;52.70;101272.66;4977108;28;20393;-76
2023/09/25 03:35:17;;;;;;;;;;;;;;;18.21;52.45;101276.06;4973249;28;19918;-76
2023/09/25 03:38:09;;;;;;;;;;;;;;;18.09;53.05;101273.34;4986141;28;19914;-76
2023/09/25 03:41:01;;;;;;;;;;;;;;;18.14;53.19;101278.59;4976478;28;20382;-76
2023/09/25 03:43:53;;;;;;;;;;;;;;;17.75;53.40;101277.53;4987635;28;19913;-76
2023/09/25 03:46:45;;;;;;;;;;;;;;;17.70;53.93;101283.28;4990790;28;19914;-76
2023/09/25 03:49:36;;;;;;;;;;;;;;;17.58;53.99;101273.09;5002754;28;19918;-76
2023/09/25 03:52:28;;;;;;;;;;;;;;;17.70;53.44;101267.56;4973129;28;19914;-76
2023/09/25 03:55:20;;;;;;;;;;;;;;;17.78;54.08;101269.38;4986079;28;19914;-76
2023/09/25 03:58:12;;;;;;;;;;;;;;;17.06;55.06;101273.91;4974645;28;19913;-76
2023/09/25 04:01:04;;;;;;;;;;;;;;;16.49;57.71;101264.94;4985709;28;19918;-76
2023/09/25 04:03:53;;;;;;;;;;;;;;;16.58;57.33;101271.09;4976671;28;19917;-76
2023/09/25 04:06:45;;;;;;;;;;;;;;;16.14;58.56;101264.53;4984803;28;19913;-76
2023/09/25 04:09:37;;;;;;;;;;;;;;;16.24;59.20;101264.09;4978252;28;20567;-77
2023/09/25 04:12:29;;;;;;;;;;;;;;;16.42;58.29;101270.16;4976500;28;19913;-77
2023/09/25 04:15:22;;;;;;;;;;;;;;;16.82;57.38;101287.63;4985396;28;19918;-76
2023/09/25 04:18:17;;;;;;;;;;;;;;;17.00;58.98;101283.53;4980034;28;19914;-76
2023/09/25 04:21:10;;;;;;;;;;;;;;;17.08;59.07;101288.06;4991288;28;19926;-76
2023/09/25 04:24:03;;;;;;;;;;;;;;;16.75;57.37;101287.41;4987875;28;20286;-76
2023/09/25 04:26:55;;;;;;;;;;;;;;;16.68;57.69;101277.00;4983277;28;19914;-76
2023/09/25 04:29:45;;;;;;;;;;;;;;;16.23;58.24;101276.19;4995561;28;20298;-76
2023/09/25 04:32:36;;;;;;;;;;;;;;;16.20;59.07;101291.38;4991177;28;19918;-76
2023/09/25 04:35:28;;;;;;;;;;;;;;;16.11;59.21;101284.38;4995344;28;19914;-75
2023/09/25 04:38:20;;;;;;;;;;;;;;;16.13;59.50;101288.41;4992853;28;20294;-77
2023/09/25 04:41:12;;;;;;;;;;;;;;;16.24;60.04;101288.78;4983996;28;19926;-76
2023/09/25 04:44:04;;;;;;;;;;;;;;;16.53;58.94;101296.03;4975904;28;20620;-76
2023/09/25 04:46:56;;;;;;;;;;;;;;;16.78;59.06;101291.41;4974265;28;19914;-77
2023/09/25 04:49:48;;;;;;;;;;;;;;;17.22;56.85;101289.69;4980392;28;19918;-76
2023/09/25 04:52:40;;;;;;;;;;;;;;;18.14;54.56;101293.16;4983231;28;19913;-76
2023/09/25 04:55:32;;;;;;;;;;;;;;;17.69;54.40;101290.72;4983146;28;19913;-76
2023/09/25 04:58:24;;;;;;;;;;;;;;;17.15;54.35;101305.94;4979605;28;19914;-77
2023/09/25 05:01:15;;;;;;;;;;;;;;;17.07;55.15;101310.41;4982776;28;19918;-76
2023/09/25 05:04:07;;;;;;;;;;;;;;;16.70;56.00;101306.88;4979778;28;19918;-76
2023/09/25 05:06:59;;;;;;;;;;;;;;;16.61;57.06;101304.19;4982963;28;20278;-77
2023/09/25 05:09:51;;;;;;;;;;;;;;;16.53;56.61;101299.59;4976514;28;20294;-77
2023/09/25 05:12:41;;;;;;;;;;;;;;;16.65;56.40;101309.84;4980174;28;19914;-76
2023/09/25 05:15:33;;;;;;;;;;;;;;;16.47;57.01;101313.88;4977792;28;19929;-76
2023/09/25 05:18:22;;;;;;;;;;;;;;;16.48;57.31;101304.50;4981539;28;19914;-78
2023/09/25 05:21:14;;;;;;;;;;;;;;;16.78;56.24;101308.69;4979296;28;20303;-77
2023/09/25 05:24:06;;;;;;;;;;;;;;;16.51;59.40;101312.03;4976551;28;19914;-77
2023/09/25 05:26:55;;;;;;;;;;;;;;;17.15;59.09;101305.94;4978050;28;19914;-77
2023/09/25 05:29:51;;;;;;;;;;;;;;;17.73;57.48;101305.38;4981592;28;19918;-77
2023/09/25 05:32:41;;;;;;;;;;;;;;;17.71;55.76;101309.66;4975373;28;19917;-76
2023/09/25 05:35:32;;;;;;;;;;;;;;;17.18;55.15;101308.00;4979663;28;19914;-76
2023/09/25 05:38:24;;;;;;;;;;;;;;;17.49;55.00;101313.69;4976878;28;19914;-76
2023/09/25 05:41:16;;;;;;;;;;;;;;;17.25;54.33;101317.28;4980913;28;19917;-77
2023/09/25 05:44:08;;;;;;;;;;;;;;;17.10;54.68;101320.72;4977365;28;19914;-77
2023/09/25 05:47:00;;;;;;;;;;;;;;;17.40;57.16;101319.31;4976774;28;19914;-76
2023/09/25 05:49:52;;;;;;;;;;;;;;;17.45;56.42;101321.03;4984835;28;19918;-77
2023/09/25 05:52:44;;;;;;;;;;;;;;;17.43;54.54;101320.56;4995610;28;19917;-76
2023/09/25 05:55:36;;;;;;;;;;;;;;;17.24;55.02;101323.91;4975292;28;19914;-76
2023/09/25 05:58:28;;;;;;;;;;;;;;;17.45;54.49;101318.28;4979362;28;19913;-77
2023/09/25 06:01:20;;;;;;;;;;;;;;;17.48;53.86;101315.63;4977371;28;19917;-76
2023/09/25 06:04:17;;;;;;;;;;;;;;;18.42;54.89;101320.69;4977275;28;20374;-76
2023/09/25 06:07:09;;;;;;;;;;;;;;;18.70;53.68;101329.69;4978336;28;20318;-77
2023/09/25 06:10:01;;;;;;;;;;;;;;;19.02;52.47;101324.19;4976301;28;19914;-77
2023/09/25 06:12:50;;;;;;;;;;;;;;;19.12;52.13;101320.88;4981649;28;19914;-77
2023/09/25 06:15:44;;;;;;;;;;;;;;;19.30;51.50;101333.09;4979813;28;19913;-76
2023/09/25 06:18:37;;;;;;;;;;;;;;;19.55;51.26;101328.22;5003768;28;19918;-76
2023/09/25 06:21:29;;;;;;;;;;;;;;;19.72;50.66;101319.50;4999855;28;19918;-76
2023/09/25 06:24:16;;;;;;;;;;;;;;;19.85;50.44;101311.88;4981956;28;19913;-77
2023/09/25 06:27:06;;;;;;;;;;;;;;;19.98;49.75;101316.09;4987904;28;20417;-76
2023/09/25 06:29:58;;;;;;;;;;;;;;;20.04;49.34;101317.41;4985505;28;19918;-76
2023/09/25 06:32:50;;;;;;;;;;;;;;;20.11;49.34;101325.81;4986252;28;19915;-76
2023/09/25 06:35:42;;;;;;;;;;;;;;;20.17;49.13;101327.09;4992854;28;19913;-77
2023/09/25 06:38:34;;;;;;;;;;;;;;;20.24;49.06;101331.97;4995374;28;19917;-76
2023/09/25 06:41:26;;;;;;;;;;;;;;;20.27;48.79;101329.28;4994002;28;19922;-77
2023/09/25 06:44:15;;;;;;;;;;;;;;;20.31;48.70;101321.91;4996467;28;20375;-76
2023/09/25 06:47:07;;;;;;;;;;;;;;;20.33;48.29;101329.81;4995743;28;19917;-76
2023/09/25 06:49:59;;;;;;;;;;;;;;;20.34;47.70;101332.22;4998843;28;19914;-77
2023/09/25 06:52:51;;;;;;;;;;;;;;;20.37;47.47;101341.72;4996904;28;19917;-77
2023/09/25 06:55:47;;;;;;;;;;;;;;;20.36;47.48;101343.72;4994756;28;19914;-78
2023/09/25 06:58:39;;;;;;;;;;;;;;;20.39;47.44;101337.44;4998089;28;19914;-76
2023/09/25 07:01:31;;;;;;;;;;;;;;;20.42;47.40;101344.97;4996000;28;19937;-76
2023/09/25 07:04:22;;;;;;;;;;;;;;;20.45;47.49;101343.47;4995635;28;20380;-76
2023/09/25 07:07:14;;;;;;;;;;;;;;;20.45;47.27;101340.69;4997040;28;19914;-76
2023/09/25 07:10:06;;;;;;;;;;;;;;;20.44;46.72;101341.88;4991418;28;20553;-77
2023/09/25 07:12:58;;;;;;;;;;;;;;;20.51;47.77;101352.25;4992862;28;19914;-78
2023/09/25 07:15:50;;;;;;;;;;;;;;;20.54;47.66;101343.22;4993596;28;19913;-76
2023/09/25 07:18:39;;;;;;;;;;;;;;;20.52;47.58;101340.03;4990265;28;20402;-78
2023/09/25 07:21:31;;;;;;;;;;;;;;;20.53;47.07;101333.31;4995112;28;19922;-78
2023/09/25 07:24:23;;;;;;;;;;;;;;;20.72;47.70;101341.59;4986646;28;19914;-78
2023/09/25 07:27:13;;;;;;;;;;;;;;;20.89;47.00;101346.59;4991181;28;19917;-77
2023/09/25 07:30:06;;;;;;;;;;;;;;;20.95;46.75;101342.38;4996443;28;19914;-76
2023/09/25 07:32:55;;;;;;;;;;;;;;;20.96;45.57;101334.88;4995500;28;19918;-77
2023/09/25 07:35:48;;;;;;;;;;;;;;;21.08;47.29;101343.75;4998803;28;19913;-77
2023/09/25 07:38:40;;;;;;;;;;;;;;;21.18;47.44;101339.59;4998316;28;20290;-78
2023/09/25 07:41:32;;;;;;;;;;;;;;;21.20;47.07;101342.78;4996037;28;19917;-78
2023/09/25 07:44:25;;;;;;;;;;;;;;;21.24;45.99;101330.59;4982193;28;19914;-77
2023/09/25 07:47:18;;;;;;;;;;;;;;;21.55;44.43;101334.19;4988001;28;19918;-77
2023/09/25 07:50:14;;;;;;;;;;;;;;;21.91;43.00;101330.72;5000431;28;19914;-77
2023/09/25 07:53:05;;;;;;;;;;;;;;;21.04;40.62;101331.84;4996593;28;19917;-77
2023/09/25 07:55:57;;;;;;;;;;;;;;;20.57;41.88;101334.22;4987994;28;19918;-77
2023/09/25 07:58:47;;;;;;;;;;;;;;;20.39;41.92;101337.44;4979754;28;20379;-77
2023/09/25 08:01:39;;;;;;;;;;;;;;;20.74;43.74;101334.50;4976809;28;19918;-77
2023/09/25 08:04:36;;;;;;;;;;;;;;;20.66;41.98;101345.81;4974811;28;19914;-76
2023/09/25 08:07:28;;;;;;;;;;;;;;;20.63;40.35;101346.53;4978535;28;19926;-77
2023/09/25 08:10:17;;;;;;;;;;;;;;;20.69;39.66;101353.34;4975236;28;19913;-77
2023/09/25 08:13:09;;;;;;;;;;;;;;;20.71;39.93;101346.31;4973323;28;19914;-77
2023/09/25 08:16:05;;;;;;;;;;;;;;;20.79;39.49;101352.75;4977843;28;19913;-78
2023/09/25 08:18:57;;;;;;;;;;;;;;;20.80;38.83;101348.81;4974712;28;19914;-76
2023/09/25 08:21:49;;;;;;;;;;;;;;;20.87;39.01;101355.28;4978403;28;19922;-77
2023/09/25 08:24:41;;;;;;;;;;;;;;;20.98;38.92;101358.19;4975732;28;19914;-77
2023/09/25 08:27:33;;;;;;;;;;;;;;;21.09;38.56;101361.94;4974712;28;19914;-77
2023/09/25 08:30:25;;;;;;;;;;;;;;;21.09;39.22;101370.25;4978092;28;19914;-77
2023/09/25 08:33:17;;;;;;;;;;;;;;;21.22;38.31;101362.59;4975381;28;20303;-77
2023/09/25 08:36:11;;;;;;;;;;;;;;;21.33;37.38;101369.84;4978340;28;19918;-77
2023/09/25 08:39:03;;;;;;;;;;;;;;;21.38;36.83;101370.72;4977698;28;19914;-77
2023/09/25 08:41:55;;;;;;;;;;;;;;;21.50;36.02;101356.66;4974978;28;20383;-77
2023/09/25 08:44:47;;;;;;;;;;;;;;;21.61;36.50;101361.19;4973984;28;19914;-77
2023/09/25 08:47:40;;;;;;;;;;;;;;;21.62;35.74;101362.00;4976338;28;19918;-77
2023/09/25 08:50:30;;;;;;;;;;;;;;;21.80;36.64;101367.75;4974582;28;19914;-78
2023/09/25 08:53:22;;;;;;;;;;;;;;;21.91;36.77;101371.47;4976019;28;19914;-77
2023/09/25 08:56:15;;;;;;;;;;;;;;;21.87;36.56;101367.84;4978814;28;19918;-77
2023/09/25 08:59:07;;;;;;;;;;;;;;;22.03;36.86;101366.53;4987319;28;19914;-77
2023/09/25 09:01:59;;;;;;;;;;;;;;;21.98;35.82;101371.59;4990741;28;19922;-77
2023/09/25 09:04:51;;;;;;;;;;;;;;;22.16;34.81;101365.09;4980202;28;20294;-77
2023/09/25 09:07:54;;;;;;;;;;;;;;;22.21;34.42;101371.47;5004271;28;19913;-77
2023/09/25 09:10:46;;;;;;;;;;;;;;;22.42;35.20;101371.72;4993745;28;19913;-77
2023/09/25 09:13:43;;;;;;;;;;;;;;;22.37;34.06;101367.31;4991523;28;19921;-77
2023/09/25 09:16:35;;;;;;;;;;;;;;;22.63;33.40;101355.28;4994905;28;19918;-78
2023/09/25 09:19:27;;;;;;;;;;;;;;;23.01;33.56;101356.84;4993388;28;19914;-77
2023/09/25 09:22:19;;;;;;;;;;;;;;;22.74;32.18;101360.97;4997397;28;19918;-77
2023/09/25 09:25:15;;;;;;;;;;;;;;;22.63;32.50;101363.63;4987411;28;20385;-77
2023/09/25 09:28:10;;;;;;;;;;;;;;;22.59;32.43;101363.59;4983138;28;19914;-77
2023/09/25 09:31:02;;;;;;;;;;;;;;;22.58;33.50;101359.22;4988965;28;19921;-78
2023/09/25 09:33:54;;;;;;;;;;;;;;;22.99;32.66;101360.00;4988671;28;19914;-79
2023/09/25 09:36:52;;;;;;;;;;;;;;;23.09;32.70;101364.06;4992176;28;19914;-78
2023/09/25 09:39:45;;;;;;;;;;;;;;;22.95;33.13;101366.72;5003432;28;19914;-77
2023/09/25 09:42:37;;;;;;;;;;;;;;;22.95;32.17;101361.97;4996580;28;19933;-78
2023/09/25 09:45:27;;;;;;;;;;;;;;;23.23;32.66;101361.38;5000563;28;20409;-79
2023/09/25 09:48:21;;;;;;;;;;;;;;;23.38;30.92;101365.84;4995642;28;19925;-78
2023/09/25 09:51:14;;;;;;;;;;;;;;;23.09;31.70;101355.72;4999264;28;19914;-77
2023/09/25 09:54:05;;;;;;;;;;;;;;;23.02;32.15;101362.00;4999519;28;19921;-77
2023/09/25 09:56:57;;;;;;;;;;;;;;;23.50;31.37;101364.78;4997754;28;19913;-77
2023/09/25 09:59:49;;;;;;;;;;;;;;;23.44;30.57;101360.72;5001150;28;19918;-77
2023/09/25 10:02:42;;;;;;;;;;;;;;;23.78;30.05;101361.34;5000846;28;19922;-77
2023/09/25 10:05:44;;;;;;;;;;;;;;;23.43;29.78;101359.13;4994942;28;19914;-77
2023/09/25 10:08:34;;;;;;;;;;;;;;;23.66;30.21;101367.25;4998640;28;20389;-78
2023/09/25 10:11:25;;;;;;;;;;;;;;;23.62;31.49;101367.19;4996771;28;19913;-77
2023/09/25 10:14:20;;;;;;;;;;;;;;;23.95;31.47;101365.41;4987283;28;19914;-77
2023/09/25 10:17:12;;;;;;;;;;;;;;;23.80;31.07;101358.97;4995952;28;19913;-78
2023/09/25 10:20:04;;;;;;;;;;;;;;;23.85;30.48;101364.97;5003021;28;20306;-78
2023/09/25 10:22:54;;;;;;;;;;;;;;;23.93;30.37;101359.41;5007381;28;19925;-78
2023/09/25 10:25:53;;;;;;;;;;;;;;;24.49;29.81;101359.63;4992906;28;20294;-78
2023/09/25 10:28:45;;;;;;;;;;;;;;;24.53;29.03;101352.09;4988840;28;19914;-77
2023/09/25 10:31:37;;;;;;;;;;;;;;;24.43;30.44;101344.53;4999472;28;20382;-78
2023/09/25 10:34:29;;;;;;;;;;;;;;;24.57;28.99;101350.13;4995835;28;19917;-77
2023/09/25 10:37:21;;;;;;;;;;;;;;;24.62;28.93;101346.16;5012555;28;19913;-79
2023/09/25 10:40:11;;;;;;;;;;;;;;;25.04;28.54;101343.41;4994987;28;19914;-78
2023/09/25 10:43:03;;;;;;;;;;;;;;;25.25;28.51;101345.38;4995409;28;20393;-79
2023/09/25 10:45:55;;;;;;;;;;;;;;;28.23;24.47;101357.22;4991619;28;19913;-80
2023/09/25 10:48:49;;;;;;;;;;;;;;;33.78;18.80;101355.78;4977817;28;19918;-80
2023/09/25 10:51:39;;;;;;;;;;;;;;;36.53;15.55;101364.16;4998837;28;20293;-78
2023/09/25 10:54:31;;;;;;;;;;;;;;;39.53;13.80;101380.91;4996527;28;20398;-79
2023/09/25 10:57:20;;;;;;;;;;;;;;;43.96;10.29;101380.06;4995289;28;19918;-79
2023/09/25 11:00:15;;;;;;;;;;;;;;;38.72;13.24;101377.25;4997331;28;19918;-79
2023/09/25 11:03:04;;;;;;;;;;;;;;;37.67;13.67;101374.94;4978859;28;19918;-78
2023/09/25 11:05:56;;;;;;;;;;;;;;;41.69;11.26;101369.47;4975030;28;20291;-79
2023/09/25 11:08:48;;;;;;;;;;;;;;;35.22;15.85;101358.88;4996999;28;20064;-79
2023/09/25 11:11:40;;;;;;;;;;;;;;;40.29;13.30;101366.38;4976661;28;19914;-79
2023/09/25 11:14:37;;;;;;;;;;;;;;;45.44;9.16;101376.16;4976332;28;20355;-79
2023/09/25 11:17:29;;;;;;;;;;;;;;;43.53;10.33;101366.31;4977405;28;20299;-79
2023/09/25 11:20:21;;;;;;;;;;;;;;;41.26;10.84;101357.38;4986971;28;19913;-79
2023/09/25 11:23:15;;;;;;;;;;;;;;;40.16;12.61;101353.31;4989419;28;19922;-79
2023/09/25 11:26:07;;;;;;;;;;;;;;;46.26;8.29;101363.13;4992973;28;19917;-79
2023/09/25 11:29:04;;;;;;;;;;;;;;;44.41;9.31;101349.69;4989406;28;20297;-80
2023/09/25 11:31:56;;;;;;;;;;;;;;;42.91;10.19;101342.88;4983612;28;20375;-79
2023/09/25 11:34:49;;;;;;;;;;;;;;;44.72;9.38;101345.47;4993002;28;20302;-79
2023/09/25 11:37:41;;;;;;;;;;;;;;;39.70;12.28;101327.78;4997983;28;19914;-79
2023/09/25 11:40:31;;;;;;;;;;;;;;;42.45;10.94;101339.88;4995099;28;19914;-80
2023/09/25 11:43:23;;;;;;;;;;;;;;;41.04;12.21;101320.22;4992962;28;19918;-79
2023/09/25 11:46:13;;;;;;;;;;;;;;;37.22;13.94;101321.41;4997038;28;19913;-79
2023/09/25 11:49:03;;;;;;;;;;;;;;;42.67;11.09;101325.47;4985971;28;19943;-78
2023/09/25 11:51:52;;;;;;;;;;;;;;;35.28;16.14;101311.75;4978562;28;19914;-79
2023/09/25 11:54:44;;;;;;;;;;;;;;;35.78;16.14;101307.47;4974035;28;19918;-79
2023/09/25 11:57:36;;;;;;;;;;;;;;;37.17;14.04;101307.91;4975148;28;19914;-79
2023/09/25 12:00:31;;;;;;;;;;;;;;;38.62;13.23;101302.66;4977803;28;19914;-79
2023/09/25 12:03:23;;;;;;;;;;;;;;;38.25;13.25;101298.75;4985563;28;19926;-79
2023/09/25 12:06:15;;;;;;;;;;;;;;;40.35;11.90;101296.72;4985294;28;19918;-79
2023/09/25 12:09:11;;;;;;;;;;;;;;;34.90;17.05;101292.38;4997745;28;19914;-78
2023/09/25 12:12:03;;;;;;;;;;;;;;;38.16;13.81;101290.31;4993950;28;20378;-78
2023/09/25 12:14:52;;;;;;;;;;;;;;;39.60;12.74;101297.91;4992696;28;19913;-78
2023/09/25 12:17:44;;;;;;;;;;;;;;;42.11;10.52;101299.84;4991433;28;19918;-80
2023/09/25 12:20:39;;;;;;;;;;;;;;;45.57;8.75;101306.44;4987999;28;19913;-79
2023/09/25 12:23:31;;;;;;;;;;;;;;;42.39;10.86;101304.78;4991282;28;19925;-78
2023/09/25 12:26:23;;;;;;;;;;;;;;;42.37;11.00;101299.56;4991862;28;19913;-79
2023/09/25 12:29:15;;;;;;;;;;;;;;;43.06;10.18;101296.72;4983312;28;19921;-80
2023/09/25 12:32:08;;;;;;;;;;;;;;;43.64;10.09;101294.56;4992519;28;19913;-78
2023/09/25 12:34:57;;;;;;;;;;;;;;;43.63;9.85;101298.75;4990883;28;20378;-79
2023/09/25 12:37:49;;;;;;;;;;;;;;;43.22;9.94;101292.25;5002653;28;19918;-79
2023/09/25 12:40:41;;;;;;;;;;;;;;;43.19;10.47;101271.16;4976383;28;20286;-79
2023/09/25 12:43:33;;;;;;;;;;;;;;;44.01;10.00;101291.13;4973908;28;19921;-79
2023/09/25 12:46:25;;;;;;;;;;;;;;;47.33;8.86;101296.28;4997223;28;19918;-79
2023/09/25 12:49:17;;;;;;;;;;;;;;;43.17;10.37;101290.19;4993209;28;19914;-80
2023/09/25 12:52:09;;;;;;;;;;;;;;;37.91;14.45;101271.81;4998559;28;19918;-79
2023/09/25 12:55:01;;;;;;;;;;;;;;;41.75;11.23;101278.03;4990721;28;19922;-79
2023/09/25 12:57:52;;;;;;;;;;;;;;;39.14;12.86;101271.50;4988262;28;19913;-79
2023/09/25 13:00:41;;;;;;;;;;;;;;;41.22;11.70;101270.41;4988513;28;20386;-79
2023/09/25 13:03:31;;;;;;;;;;;;;;;42.95;11.43;101276.75;4985606;28;19922;-78
2023/09/25 13:06:23;;;;;;;;;;;;;;;43.10;11.66;101268.63;4983532;28;19922;-79
2023/09/25 13:09:15;;;;;;;;;;;;;;;43.51;11.44;101265.75;4992539;28;19913;-79
2023/09/25 13:12:07;;;;;;;;;;;;;;;42.89;11.68;101264.53;4990492;28;20306;-79
2023/09/25 13:15:00;;;;;;;;;;;;;;;44.38;11.29;101269.66;4987868;28;19918;-78
2023/09/25 13:17:52;;;;;;;;;;;;;;;41.68;12.59;101267.13;4993901;28;20294;-78
2023/09/25 13:20:39;;;;;;;;;;;;;;;41.28;12.86;101259.78;4987950;28;19914;-78
2023/09/25 13:23:30;;;;;;;;;;;;;;;40.16;13.66;101245.00;4985822;28;19918;-79
2023/09/25 13:26:22;;;;;;;;;;;;;;;39.81;13.88;101241.66;4992282;28;19914;-79
2023/09/25 13:29:19;;;;;;;;;;;;;;;39.91;14.14;101239.41;5000041;28;20300;-79
2023/09/25 13:32:11;;;;;;;;;;;;;;;39.88;14.10;101246.88;4996982;28;19914;-80
2023/09/25 13:35:03;;;;;;;;;;;;;;;39.70;14.18;101236.63;4991222;28;19914;-79
2023/09/25 13:37:55;;;;;;;;;;;;;;;39.49;14.09;101231.50;4987421;28;19914;-79
2023/09/25 13:40:47;;;;;;;;;;;;;;;38.47;15.42;101228.81;4991811;28;19917;-79
2023/09/25 13:43:39;;;;;;;;;;;;;;;38.32;15.19;101227.25;4989545;28;19918;-79
2023/09/25 13:46:26;;;;;;;;;;;;;;;37.73;16.53;101235.91;4992925;28;19918;-79
2023/09/25 13:49:17;;;;;;;;;;;;;;;39.10;15.04;101228.28;4979998;28;19914;-79
2023/09/25 13:52:09;;;;;;;;;;;;;;;39.49;14.48;101226.59;4981787;28;19913;-79
2023/09/25 13:55:01;;;;;;;;;;;;;;;37.99;15.24;101221.88;4976771;28;19914;-79
2023/09/25 13:57:53;;;;;;;;;;;;;;;37.17;16.21;101203.72;4982012;28;19917;-79
2023/09/25 14:00:43;;;;;;;;;;;;;;;37.32;15.76;101220.75;4990167;28;19914;-79
2023/09/25 14:03:35;;;;;;;;;;;;;;;36.21;16.91;101221.28;4998981;28;19918;-79
2023/09/25 14:06:27;;;;;;;;;;;;;;;36.35;17.30;101229.84;5001999;28;19914;-78
2023/09/25 14:09:24;;;;;;;;;;;;;;;35.81;17.86;101224.44;4995509;28;20285;-78
2023/09/25 14:12:16;;;;;;;;;;;;;;;39.42;15.42;101227.06;4992620;28;19914;-79
2023/09/25 14:15:11;;;;;;;;;;;;;;;37.83;16.30;101231.69;4995507;28;19918;-79
2023/09/25 14:18:04;;;;;;;;;;;;;;;36.17;17.83;101229.91;4984224;28;19914;-79
2023/09/25 14:20:56;;;;;;;;;;;;;;;34.39;19.34;101225.06;4993096;28;19914;-79
2023/09/25 14:23:48;;;;;;;;;;;;;;;32.80;20.92;101223.50;4974607;28;19918;-79
2023/09/25 14:26:40;;;;;;;;;;;;;;;31.33;21.68;101220.13;4991383;28;19918;-78
2023/09/25 14:29:32;;;;;;;;;;;;;;;31.69;21.68;101217.06;5000191;28;19913;-79
2023/09/25 14:32:21;;;;;;;;;;;;;;;32.28;21.64;101217.63;5000552;28;19914;-78
2023/09/25 14:35:13;;;;;;;;;;;;;;;32.25;21.92;101222.16;5007605;28;19921;-78
2023/09/25 14:38:05;;;;;;;;;;;;;;;31.42;23.47;101220.25;5014007;28;19914;-79
2023/09/25 14:40:57;;;;;;;;;;;;;;;32.23;22.77;101221.81;5012161;28;19914;-78
2023/09/25 14:43:49;;;;;;;;;;;;;;;30.81;23.46;101219.56;4997394;28;19917;-79